Time;durP1;ratioP1;P1;durP2;ratioP2;P2;SDS_P1;SDS_P2;PMS_P1;PMS_P2;Temp;Humidity;BMP_temperature;BMP_pressure;BME280_temperature;BME280_humidity;BME280_pressure;Samples;Min_cycle;Max_cycle;Signal;HPM_P1;HPM_P2
2020/12/04 00:01:15;;;;;;;21.87;13.57;;;2.60;99.90;;;;;;5074800;28;20225;-74
2020/12/04 00:03:40;;;;;;;21.77;12.40;;;2.50;99.90;;;;;;5068594;28;20246;-74
2020/12/04 00:06:06;;;;;;;20.17;12.13;;;2.50;99.90;;;;;;5054832;28;20678;-75
2020/12/04 00:08:31;;;;;;;22.30;13.60;;;2.50;99.90;;;;;;5054626;28;20213;-74
2020/12/04 00:10:57;;;;;;;21.57;12.87;;;2.50;99.90;;;;;;5054680;28;20187;-74
2020/12/04 00:13:22;;;;;;;19.17;12.57;;;2.50;99.90;;;;;;5057361;28;20978;-74
2020/12/04 00:15:48;;;;;;;19.90;12.13;;;2.50;99.90;;;;;;5074636;28;20189;-74
2020/12/04 00:18:13;;;;;;;20.40;11.97;;;2.50;99.90;;;;;;5074417;28;20657;-74
2020/12/04 00:20:39;;;;;;;19.33;12.80;;;2.50;99.90;;;;;;5074291;28;20221;-74
2020/12/04 00:23:04;;;;;;;21.00;12.83;;;2.60;99.90;;;;;;5073688;28;20645;-75
2020/12/04 00:25:30;;;;;;;17.63;12.10;;;2.60;99.90;;;;;;5054556;28;20178;-74
2020/12/04 00:27:55;;;;;;;21.83;13.57;;;2.60;99.90;;;;;;5054380;28;20572;-74
2020/12/04 00:30:21;;;;;;;23.03;12.93;;;2.60;99.90;;;;;;5054196;28;20175;-74
2020/12/04 00:32:46;;;;;;;17.50;12.27;;;2.60;99.90;;;;;;5065235;28;20190;-74
2020/12/04 00:35:12;;;;;;;17.83;10.97;;;2.60;99.90;;;;;;5074105;28;20653;-74
2020/12/04 00:37:37;;;;;;;20.27;11.77;;;2.60;99.90;;;;;;5074335;28;20228;-74
2020/12/04 00:40:04;;;;;;;15.07;10.20;;;2.60;99.90;;;;;;5072730;28;20193;-74
2020/12/04 00:42:30;;;;;;;21.08;11.70;;;2.60;99.90;;;;;;5071415;28;20205;-74
2020/12/04 00:44:55;;;;;;;15.55;10.55;;;2.60;99.90;;;;;;5073865;28;20235;-74
2020/12/04 00:47:21;;;;;;;18.30;10.73;;;2.60;99.90;;;;;;5073683;28;20308;-74
2020/12/04 00:49:47;;;;;;;15.23;10.68;;;2.60;99.90;;;;;;5068996;28;20201;-74
2020/12/04 00:52:12;;;;;;;18.93;11.93;;;2.60;99.90;;;;;;5053891;28;20182;-74
2020/12/04 00:54:38;;;;;;;19.27;11.90;;;2.60;99.90;;;;;;5053655;28;20543;-75
2020/12/04 00:57:07;;;;;;;18.70;13.00;;;2.60;99.90;;;;;;5053798;28;20254;-75
2020/12/04 00:59:33;;;;;;;16.45;10.23;;;2.70;99.90;;;;;;5053615;28;20716;-74
2020/12/04 01:01:58;;;;;;;19.03;11.73;;;2.60;99.90;;;;;;5073022;28;20217;-74
2020/12/04 01:04:24;;;;;;;18.37;11.50;;;2.60;99.90;;;;;;5073447;28;20190;-74
2020/12/04 01:06:49;;;;;;;13.93;10.57;;;2.60;99.90;;;;;;5059005;28;20190;-74
2020/12/04 01:09:15;;;;;;;16.97;12.07;;;2.60;99.90;;;;;;5065340;28;20193;-74
2020/12/04 01:11:40;;;;;;;18.27;11.60;;;2.60;99.90;;;;;;5073547;28;20193;-74
2020/12/04 01:14:07;;;;;;;19.57;12.23;;;2.60;99.90;;;;;;5062797;28;20186;-74
2020/12/04 01:16:32;;;;;;;20.60;12.63;;;2.60;99.90;;;;;;5064673;28;20479;-75
2020/12/04 01:18:58;;;;;;;14.40;9.77;;;2.60;99.90;;;;;;5072730;28;20181;-74
2020/12/04 01:21:23;;;;;;;22.70;12.80;;;2.70;99.90;;;;;;5073089;28;20217;-74
2020/12/04 01:23:53;;;;;;;17.50;12.37;;;2.60;99.90;;;;;;5073179;28;20178;-74
2020/12/04 01:26:19;;;;;;;18.15;11.25;;;2.60;99.90;;;;;;5066229;28;20659;-75
2020/12/04 01:28:45;;;;;;;13.73;9.20;;;2.60;99.90;;;;;;5053104;28;20179;-75
2020/12/04 01:31:10;;;;;;;13.27;10.97;;;2.60;99.90;;;;;;5053098;28;20435;-74
2020/12/04 01:33:36;;;;;;;16.13;9.43;;;2.60;99.90;;;;;;5053009;28;20213;-76
2020/12/04 01:36:03;;;;;;;16.65;9.65;;;2.60;99.90;;;;;;5053869;28;20194;-75
2020/12/04 01:38:28;;;;;;;13.35;8.95;;;2.60;99.90;;;;;;5053007;28;20186;-76
2020/12/04 01:40:58;;;;;;;12.87;9.67;;;2.50;99.90;;;;;;5052822;28;20213;-75
2020/12/04 01:43:23;;;;;;;14.82;9.48;;;2.50;99.90;;;;;;5052890;28;20209;-74
2020/12/04 01:45:49;;;;;;;13.37;8.80;;;2.50;99.90;;;;;;5068758;28;20551;-75
2020/12/04 01:48:15;;;;;;;12.85;9.43;;;2.50;99.90;;;;;;5072678;28;20661;-76
2020/12/04 01:50:40;;;;;;;15.60;9.40;;;2.50;99.90;;;;;;5072533;28;20217;-74
2020/12/04 01:53:06;;;;;;;14.83;9.97;;;2.50;99.90;;;;;;5072617;28;20185;-75
2020/12/04 01:55:32;;;;;;;14.30;10.30;;;2.50;99.90;;;;;;5058875;28;20207;-76
2020/12/04 01:58:02;;;;;;;15.20;10.50;;;2.50;99.90;;;;;;5052679;28;20189;-75
2020/12/04 02:00:27;;;;;;;15.68;10.98;;;2.50;99.90;;;;;;5052889;28;20577;-75
2020/12/04 02:02:52;;;;;;;15.17;11.57;;;2.60;99.90;;;;;;5052510;28;20178;-75
2020/12/04 02:05:18;;;;;;;15.30;11.40;;;2.50;99.90;;;;;;5063690;28;20291;-74
2020/12/04 02:07:50;;;;;;;13.80;10.27;;;2.60;99.90;;;;;;5072580;28;20583;-75
2020/12/04 02:10:21;;;;;;;16.00;11.27;;;2.50;99.90;;;;;;5072443;28;20641;-75
2020/12/04 02:12:48;;;;;;;17.80;10.60;;;2.60;99.90;;;;;;5072397;28;20554;-76
2020/12/04 02:15:14;;;;;;;16.25;9.65;;;2.60;99.90;;;;;;5069378;28;20174;-75
2020/12/04 02:17:40;;;;;;;15.50;10.00;;;2.60;99.90;;;;;;5072614;28;20181;-75
2020/12/04 02:20:06;;;;;;;18.33;11.05;;;2.60;99.90;;;;;;5072545;28;20174;-75
2020/12/04 02:22:36;;;;;;;13.37;9.70;;;2.60;99.90;;;;;;5072291;28;20240;-76
2020/12/04 02:25:02;;;;;;;18.17;10.68;;;2.60;99.90;;;;;;5059368;28;20541;-75
2020/12/04 02:27:28;;;;;;;18.83;11.27;;;2.50;99.90;;;;;;5052328;28;20182;-76
2020/12/04 02:29:53;;;;;;;15.80;10.70;;;2.50;99.90;;;;;;5052314;28;20178;-75
2020/12/04 02:32:19;;;;;;;15.53;10.63;;;2.50;99.90;;;;;;5052257;28;20186;-75
2020/12/04 02:34:44;;;;;;;16.10;10.20;;;2.50;99.90;;;;;;5056828;28;20186;-75
2020/12/04 02:37:10;;;;;;;13.67;10.07;;;2.50;99.90;;;;;;5072271;28;20202;-76
2020/12/04 02:39:36;;;;;;;13.40;9.93;;;2.50;99.90;;;;;;5072341;28;20457;-75
2020/12/04 02:42:04;;;;;;;15.02;10.70;;;2.50;99.90;;;;;;5072295;28;20650;-75
2020/12/04 02:44:29;;;;;;;16.42;10.43;;;2.50;99.90;;;;;;5070127;28;20265;-76
2020/12/04 02:46:55;;;;;;;12.43;9.90;;;2.50;99.90;;;;;;5051900;28;20757;-75
2020/12/04 02:49:20;;;;;;;15.40;9.20;;;2.50;99.90;;;;;;5052103;28;20183;-76
2020/12/04 02:51:50;;;;;;;13.70;10.53;;;2.50;99.90;;;;;;5052270;28;20183;-75
2020/12/04 02:54:16;;;;;;;15.38;9.98;;;2.50;99.90;;;;;;5052166;28;20628;-75
2020/12/04 02:56:43;;;;;;;12.90;9.02;;;2.50;99.90;;;;;;5056362;28;20266;-75
2020/12/04 02:59:09;;;;;;;13.25;9.07;;;2.50;99.90;;;;;;5052058;28;20186;-76
2020/12/04 03:01:34;;;;;;;14.20;9.90;;;2.60;99.90;;;;;;5052535;28;20218;-76
2020/12/04 03:04:00;;;;;;;19.70;10.30;;;2.50;99.90;;;;;;5072103;28;20213;-75
2020/12/04 03:06:25;;;;;;;12.00;8.93;;;2.50;99.90;;;;;;5071908;28;20182;-76
2020/12/04 03:08:52;;;;;;;13.30;9.80;;;2.50;99.90;;;;;;5071991;28;20178;-76
2020/12/04 03:11:19;;;;;;;12.25;9.32;;;2.50;99.90;;;;;;5059422;28;20252;-76
2020/12/04 03:13:45;;;;;;;12.43;8.15;;;2.40;99.90;;;;;;5051865;28;20240;-76
2020/12/04 03:16:11;;;;;;;15.13;8.70;;;2.40;99.90;;;;;;5051962;28;20179;-75
2020/12/04 03:18:36;;;;;;;10.40;8.43;;;2.40;99.90;;;;;;5051881;28;20413;-76
2020/12/04 03:21:02;;;;;;;12.33;9.10;;;2.40;99.90;;;;;;5061186;28;20672;-76
2020/12/04 03:23:27;;;;;;;11.20;8.20;;;2.40;99.90;;;;;;5071791;28;20178;-76
2020/12/04 03:25:55;;;;;;;11.63;8.13;;;2.40;99.90;;;;;;5071855;28;20182;-76
2020/12/04 03:28:20;;;;;;;11.05;8.30;;;2.50;99.90;;;;;;5071835;28;20170;-76
2020/12/04 03:30:46;;;;;;;11.27;8.00;;;2.50;99.90;;;;;;5064871;28;20187;-76
2020/12/04 03:33:11;;;;;;;9.60;8.07;;;2.50;99.90;;;;;;5051682;28;20417;-76
2020/12/04 03:35:37;;;;;;;10.87;7.27;;;2.50;99.90;;;;;;5051710;28;20190;-76
2020/12/04 03:38:02;;;;;;;14.20;8.23;;;2.40;99.90;;;;;;5054329;28;20197;-76
2020/12/04 03:40:28;;;;;;;10.60;8.13;;;2.40;99.90;;;;;;5055838;28;20589;-76
2020/12/04 03:42:54;;;;;;;6.97;6.10;;;2.40;99.90;;;;;;5075098;28;20190;-76
2020/12/04 03:45:19;;;;;;;9.20;6.65;;;2.40;99.90;;;;;;5075217;28;20174;-76
2020/12/04 03:47:45;;;;;;;11.80;6.80;;;2.30;99.90;;;;;;5075026;28;20241;-76
2020/12/04 03:50:10;;;;;;;9.63;7.83;;;2.30;99.90;;;;;;5062894;28;20545;-75
2020/12/04 03:52:36;;;;;;;13.40;9.40;;;2.30;99.90;;;;;;5054911;28;20186;-76
2020/12/04 03:55:01;;;;;;;12.73;8.67;;;2.30;99.90;;;;;;5054959;28;20187;-76
2020/12/04 03:57:27;;;;;;;17.23;8.77;;;2.40;99.90;;;;;;5054957;28;20713;-76
2020/12/04 03:59:52;;;;;;;10.87;8.07;;;2.40;99.90;;;;;;5064028;28;20699;-76
2020/12/04 04:02:18;;;;;;;12.33;8.07;;;2.40;99.90;;;;;;5070491;28;20218;-76
2020/12/04 04:04:43;;;;;;;11.10;7.87;;;2.40;99.90;;;;;;5054566;28;20332;-76
2020/12/04 04:07:09;;;;;;;15.37;8.60;;;2.50;99.90;;;;;;5054685;28;20733;-76
2020/12/04 04:09:34;;;;;;;11.47;8.50;;;2.50;99.90;;;;;;5061132;28;20170;-76
2020/12/04 04:12:00;;;;;;;14.60;9.73;;;2.60;99.90;;;;;;5064801;28;20193;-76
2020/12/04 04:14:25;;;;;;;17.83;10.87;;;2.60;99.90;;;;;;5054303;28;20182;-76
2020/12/04 04:16:51;;;;;;;14.97;10.80;;;2.60;99.90;;;;;;5054594;28;20178;-76
2020/12/04 04:19:16;;;;;;;16.40;11.37;;;2.70;99.90;;;;;;5055279;28;20228;-76
2020/12/04 04:21:42;;;;;;;16.10;9.80;;;2.70;99.90;;;;;;5074413;28;20253;-76
2020/12/04 04:24:07;;;;;;;11.23;9.33;;;2.70;99.90;;;;;;5073169;28;20539;-76
2020/12/04 04:26:33;;;;;;;13.93;8.83;;;2.70;99.90;;;;;;5074638;28;20208;-76
2020/12/04 04:28:59;;;;;;;11.63;7.73;;;2.70;99.90;;;;;;5072957;28;20181;-76
2020/12/04 04:31:24;;;;;;;11.63;7.80;;;2.70;99.90;;;;;;5074042;28;20185;-75
2020/12/04 04:33:50;;;;;;;12.47;8.03;;;2.70;99.90;;;;;;5074316;28;20178;-75
2020/12/04 04:36:16;;;;;;;16.83;10.13;;;2.70;99.90;;;;;;5074408;28;20541;-76
2020/12/04 04:38:41;;;;;;;15.57;10.10;;;2.70;99.90;;;;;;5074215;28;20174;-76
2020/12/04 04:41:07;;;;;;;12.57;8.87;;;2.70;99.90;;;;;;5070792;28;20709;-76
2020/12/04 04:43:32;;;;;;;15.30;9.13;;;2.70;99.90;;;;;;5074132;28;20283;-75
2020/12/04 04:46:15;;;;;;;13.87;9.23;;;2.70;99.90;;;;;;5073918;28;20182;-75
2020/12/04 04:48:47;;;;;;;10.77;8.68;;;2.70;99.90;;;;;;5072964;28;20304;-76
2020/12/04 04:51:13;;;;;;;12.77;7.57;;;2.70;99.90;;;;;;5055507;28;20190;-76
2020/12/04 04:53:42;;;;;;;11.43;8.45;;;2.70;99.90;;;;;;5054053;28;20214;-75
2020/12/04 04:56:07;;;;;;;10.80;8.43;;;2.70;99.90;;;;;;5053748;28;20265;-76
2020/12/04 04:58:33;;;;;;;14.90;9.93;;;2.70;99.90;;;;;;5053603;28;20269;-76
2020/12/04 05:00:58;;;;;;;15.90;11.03;;;2.70;99.90;;;;;;5069795;28;20205;-76
2020/12/04 05:03:24;;;;;;;13.57;9.90;;;2.70;99.90;;;;;;5073624;28;20190;-76
2020/12/04 05:05:52;;;;;;;12.97;9.40;;;2.80;99.90;;;;;;5073684;28;20633;-75
2020/12/04 05:08:22;;;;;;;15.98;10.38;;;2.80;99.90;;;;;;5073519;28;20178;-75
2020/12/04 05:10:49;;;;;;;16.63;9.80;;;2.80;99.90;;;;;;5061276;28;20193;-76
2020/12/04 05:13:19;;;;;;;12.70;8.60;;;2.90;99.90;;;;;;5053318;28;20179;-76
2020/12/04 05:15:45;;;;;;;11.77;10.35;;;2.90;99.90;;;;;;5053523;28;20206;-76
2020/12/04 05:18:18;;;;;;;14.83;9.50;;;2.90;99.90;;;;;;5053965;28;20197;-76
2020/12/04 05:20:52;;;;;;;12.40;9.45;;;2.90;99.90;;;;;;5052976;28;20566;-76
2020/12/04 05:23:18;;;;;;;12.70;8.40;;;3.00;99.90;;;;;;5053225;28;20179;-75
2020/12/04 05:25:50;;;;;;;14.90;9.10;;;3.00;99.90;;;;;;5053423;28;20182;-75
2020/12/04 05:28:20;;;;;;;14.35;10.48;;;2.90;99.90;;;;;;5053329;28;20209;-76
2020/12/04 05:31:06;;;;;;;15.40;11.00;;;3.00;99.90;;;;;;5070441;28;20255;-76
2020/12/04 05:33:32;;;;;;;13.32;10.02;;;3.00;99.90;;;;;;5059712;28;20277;-76
2020/12/04 05:35:58;;;;;;;12.15;9.18;;;3.00;99.90;;;;;;5059374;28;20585;-76
2020/12/04 05:38:24;;;;;;;18.17;10.70;;;3.00;99.90;;;;;;5058802;28;20546;-76
2020/12/04 05:40:52;;;;;;;12.10;9.23;;;3.10;99.90;;;;;;5056741;28;20202;-76
2020/12/04 05:43:31;;;;;;;15.82;10.02;;;3.10;99.90;;;;;;5052909;28;20202;-76
2020/12/04 05:46:19;;;;;;;16.10;10.82;;;3.10;99.90;;;;;;5053008;28;20533;-75
2020/12/04 05:49:04;;;;;;;12.65;10.02;;;3.10;99.90;;;;;;5053580;28;20238;-76
2020/12/04 05:51:32;;;;;;;14.07;11.35;;;3.00;99.90;;;;;;5073024;28;20181;-76
2020/12/04 05:53:59;;;;;;;12.50;10.15;;;3.00;99.90;;;;;;5072582;28;20174;-75
2020/12/04 05:56:25;;;;;;;15.43;11.00;;;3.00;99.90;;;;;;5072671;28;20188;-75
2020/12/04 05:58:55;;;;;;;13.87;10.40;;;3.00;99.90;;;;;;5070836;28;20209;-76
2020/12/04 06:01:22;;;;;;;16.30;11.25;;;2.90;99.90;;;;;;5052486;28;20483;-76
2020/12/04 06:03:53;;;;;;;12.07;9.43;;;2.90;99.90;;;;;;5052631;28;20178;-75
2020/12/04 06:06:31;;;;;;;11.35;10.15;;;3.00;99.90;;;;;;5052610;28;20194;-76
2020/12/04 06:09:05;;;;;;;16.55;10.63;;;3.00;99.90;;;;;;5067568;28;20182;-78
2020/12/04 06:11:33;;;;;;;12.98;9.23;;;3.00;99.90;;;;;;5052563;28;20186;-76
2020/12/04 06:13:59;;;;;;;15.30;9.38;;;3.10;99.90;;;;;;5052463;28;20193;-76
2020/12/04 06:16:25;;;;;;;15.40;11.53;;;3.10;99.90;;;;;;5047208;28;20184;-76
2020/12/04 06:18:51;;;;;;;13.33;10.13;;;3.10;99.90;;;;;;5032440;28;20529;-76
2020/12/04 06:21:42;;;;;;;9.67;8.70;;;3.10;99.90;;;;;;5046909;28;20683;-76
2020/12/04 06:24:08;;;;;;;10.90;8.80;;;3.10;99.90;;;;;;5052328;28;20178;-76
2020/12/04 06:26:50;;;;;;;15.37;9.27;;;3.10;99.90;;;;;;5046174;28;20240;-76
2020/12/04 06:29:16;;;;;;;14.35;10.15;;;3.10;99.90;;;;;;5038388;28;20187;-75
2020/12/04 06:31:42;;;;;;;15.65;12.35;;;3.10;99.90;;;;;;5058447;28;20269;-76
2020/12/04 06:34:21;;;;;;;16.63;10.83;;;3.10;99.90;;;;;;5046615;28;20805;-76
2020/12/04 06:36:47;;;;;;;14.95;10.30;;;3.10;99.90;;;;;;5032261;28;20183;-76
2020/12/04 06:39:30;;;;;;;17.55;12.23;;;3.10;99.90;;;;;;5047724;28;20647;-75
2020/12/04 06:41:57;;;;;;;17.63;11.25;;;3.10;99.90;;;;;;5042229;28;20218;-75
2020/12/04 06:44:24;;;;;;;17.48;12.48;;;3.10;99.90;;;;;;5032083;28;20251;-75
2020/12/04 06:46:57;;;;;;;20.10;13.07;;;3.10;99.90;;;;;;5035656;28;20226;-75
2020/12/04 06:52:18;;;;;;;16.98;12.02;;;3.10;99.90;;;;;;5052382;28;20181;-75
2020/12/04 06:54:46;;;;;;;18.80;11.60;;;3.10;99.90;;;;;;5047498;28;20182;-75
2020/12/04 06:57:13;;;;;;;15.90;10.15;;;3.20;99.90;;;;;;5049431;28;20760;-75
2020/12/04 06:59:40;;;;;;;12.07;8.95;;;3.10;99.90;;;;;;5053330;28;20594;-75
2020/12/04 07:02:14;;;;;;;10.52;7.93;;;3.10;99.90;;;;;;5046228;28;20698;-75
2020/12/04 07:04:48;;;;;;;12.32;7.45;;;3.20;99.90;;;;;;5052003;28;20179;-75
2020/12/04 07:07:24;;;;;;;13.23;8.15;;;3.10;99.90;;;;;;5052889;28;20197;-76
2020/12/04 07:09:58;;;;;;;9.32;8.43;;;3.10;99.90;;;;;;5047519;28;20279;-75
2020/12/04 07:12:28;;;;;;;12.93;11.07;;;3.10;99.90;;;;;;5053822;28;20221;-75
2020/12/04 07:14:56;;;;;;;18.02;13.40;;;3.10;99.90;;;;;;5056444;28;20251;-75
2020/12/04 07:17:23;;;;;;;20.52;16.05;;;3.10;99.90;;;;;;5043348;28;20189;-75
2020/12/04 07:19:52;;;;;;;19.42;15.15;;;3.10;99.90;;;;;;5056061;28;20171;-75
2020/12/04 07:22:19;;;;;;;17.98;14.07;;;3.10;99.90;;;;;;5055541;28;20222;-75
2020/12/04 07:24:45;;;;;;;20.83;14.15;;;3.10;99.90;;;;;;5051859;28;20179;-75
2020/12/04 07:27:19;;;;;;;18.25;14.30;;;3.20;99.90;;;;;;5043098;28;20198;-75
2020/12/04 07:29:45;;;;;;;17.02;12.77;;;3.20;99.90;;;;;;5035801;28;20186;-75
2020/12/04 07:32:12;;;;;;;15.43;13.50;;;3.20;99.90;;;;;;5049777;28;20225;-76
2020/12/04 07:34:38;;;;;;;12.93;11.63;;;3.30;99.90;;;;;;5057679;28;20716;-75
2020/12/04 07:37:05;;;;;;;9.32;8.18;;;3.30;99.90;;;;;;5054543;28;20186;-77
2020/12/04 07:39:39;;;;;;;10.18;7.72;;;3.30;99.90;;;;;;5067221;28;20298;-75
2020/12/04 07:42:08;;;;;;;11.95;6.95;;;3.30;99.90;;;;;;5055125;28;20228;-75
2020/12/04 07:44:36;;;;;;;7.07;6.20;;;3.20;99.90;;;;;;5054880;28;20174;-75
2020/12/04 07:47:05;;;;;;;10.82;6.22;;;3.30;99.90;;;;;;5040752;28;20598;-75
2020/12/04 07:49:32;;;;;;;8.30;7.18;;;3.30;99.90;;;;;;5053430;28;20214;-75
2020/12/04 07:52:09;;;;;;;10.25;8.68;;;3.30;99.90;;;;;;5050544;28;20195;-75
2020/12/04 07:54:35;;;;;;;13.25;10.18;;;3.40;99.90;;;;;;5055281;28;20185;-75
2020/12/04 07:57:01;;;;;;;12.50;9.60;;;3.50;99.90;;;;;;5048340;28;20190;-75
2020/12/04 07:59:35;;;;;;;13.18;9.55;;;3.50;99.90;;;;;;5051750;28;20214;-75
2020/12/04 08:02:02;;;;;;;10.27;7.90;;;3.50;99.90;;;;;;5043508;28;20276;-75
2020/12/04 08:04:29;;;;;;;10.30;8.10;;;3.60;99.90;;;;;;5042972;28;20249;-76
2020/12/04 08:07:09;;;;;;;11.35;9.68;;;3.50;99.90;;;;;;5050067;28;20209;-75
2020/12/04 08:09:38;;;;;;;10.73;9.55;;;3.60;99.90;;;;;;5045505;28;20180;-75
2020/12/04 08:12:09;;;;;;;14.68;10.05;;;3.60;99.90;;;;;;5034935;28;20175;-75
2020/12/04 08:14:36;;;;;;;14.93;9.80;;;3.70;99.90;;;;;;5038392;28;20188;-75
2020/12/04 08:17:05;;;;;;;11.68;9.30;;;3.70;99.90;;;;;;5042133;28;20206;-75
2020/12/04 08:19:33;;;;;;;15.50;11.13;;;3.70;99.90;;;;;;5054234;28;20171;-75
2020/12/04 08:22:01;;;;;;;17.50;11.80;;;3.80;99.90;;;;;;5054617;28;20221;-75
2020/12/04 08:24:30;;;;;;;18.95;10.63;;;3.80;99.90;;;;;;5054414;28;20187;-75
2020/12/04 08:27:14;;;;;;;16.15;11.52;;;3.90;99.90;;;;;;5048251;28;20652;-75
2020/12/04 08:30:00;;;;;;;16.10;13.82;;;3.90;99.90;;;;;;5041955;28;20772;-75
2020/12/04 08:32:26;;;;;;;12.60;10.68;;;3.90;99.90;;;;;;5052334;28;20186;-75
2020/12/04 08:35:06;;;;;;;13.93;10.65;;;3.90;99.90;;;;;;5054388;28;20183;-80
2020/12/04 08:37:32;;;;;;;12.93;10.00;;;4.00;99.90;;;;;;5049569;28;20182;-75
2020/12/04 08:39:57;;;;;;;12.17;9.80;;;4.00;99.90;;;;;;5052150;28;20189;-75
2020/12/04 08:42:30;;;;;;;14.00;10.90;;;4.10;99.90;;;;;;5053985;28;20230;-75
2020/12/04 08:45:09;;;;;;;15.00;9.63;;;4.20;99.90;;;;;;5053150;28;20899;-75
2020/12/04 08:47:44;;;;;;;16.42;10.45;;;4.30;99.90;;;;;;5051149;28;20225;-75
2020/12/04 08:50:12;;;;;;;12.48;11.23;;;4.50;99.90;;;;;;5053575;28;20176;-75
2020/12/04 08:52:41;;;;;;;13.80;10.70;;;4.60;99.90;;;;;;5053846;28;20573;-75
2020/12/04 08:55:22;;;;;;;13.73;9.95;;;4.70;99.90;;;;;;5049264;28;20214;-75
2020/12/04 08:57:49;;;;;;;11.15;9.82;;;4.80;99.90;;;;;;5053618;28;20830;-75
2020/12/04 09:00:20;;;;;;;11.75;10.02;;;5.00;99.90;;;;;;5040318;28;20273;-75
2020/12/04 09:02:46;;;;;;;14.50;10.30;;;5.10;99.90;;;;;;5052188;28;20834;-76
2020/12/04 09:05:14;;;;;;;16.23;11.30;;;5.20;99.90;;;;;;5053700;28;20300;-75
2020/12/04 09:07:40;;;;;;;13.43;10.35;;;5.30;99.90;;;;;;5048939;28;20190;-75
2020/12/04 09:10:08;;;;;;;14.40;11.97;;;5.30;99.90;;;;;;5047612;28;20179;-75
2020/12/04 09:12:34;;;;;;;10.80;9.45;;;5.40;99.90;;;;;;5040629;28;20433;-76
2020/12/04 09:15:00;;;;;;;12.18;10.93;;;5.50;99.90;;;;;;5053038;28;20178;-75
2020/12/04 09:17:26;;;;;;;13.97;9.87;;;5.50;99.90;;;;;;5052084;28;20186;-75
2020/12/04 09:19:52;;;;;;;12.75;9.55;;;5.60;99.90;;;;;;5057601;28;20701;-75
2020/12/04 09:22:18;;;;;;;13.37;8.33;;;5.70;99.90;;;;;;5052508;28;20271;-75
2020/12/04 09:24:44;;;;;;;9.75;8.23;;;5.70;99.90;;;;;;5052993;28;20421;-75
2020/12/04 09:27:10;;;;;;;10.30;7.90;;;5.70;99.90;;;;;;5052889;28;20521;-75
2020/12/04 09:29:36;;;;;;;8.17;7.23;;;5.60;99.90;;;;;;5053366;28;20182;-75
2020/12/04 09:32:16;;;;;;;11.40;8.05;;;5.60;99.90;;;;;;5052753;28;20190;-74
2020/12/04 09:34:43;;;;;;;10.68;7.30;;;5.60;99.90;;;;;;5053884;28;20698;-76
2020/12/04 09:37:15;;;;;;;11.80;10.55;;;5.60;99.90;;;;;;5036884;28;20232;-76
2020/12/04 09:39:43;;;;;;;10.02;8.43;;;5.60;99.90;;;;;;5047516;28;20277;-79
2020/12/04 09:42:09;;;;;;;12.68;8.68;;;5.60;99.50;;;;;;5052377;28;20301;-75
2020/12/04 09:44:34;;;;;;;12.23;11.03;;;5.60;99.90;;;;;;5047996;28;20273;-76
2020/12/04 09:47:00;;;;;;;12.60;10.10;;;5.60;97.30;;;;;;5053064;28;20473;-76
2020/12/04 09:49:26;;;;;;;13.33;10.47;;;5.60;99.10;;;;;;5056502;28;20278;-75
2020/12/04 09:51:58;;;;;;;12.93;11.00;;;5.50;97.70;;;;;;5048422;28;20191;-75
2020/12/04 09:54:27;;;;;;;11.95;10.07;;;5.50;95.40;;;;;;5044925;28;20545;-75
2020/12/04 09:56:55;;;;;;;14.45;10.10;;;5.40;97.30;;;;;;5062516;28;20192;-75
2020/12/04 09:59:21;;;;;;;13.05;10.50;;;5.50;98.80;;;;;;5070999;28;20239;-77
2020/12/04 10:01:52;;;;;;;15.55;11.30;;;5.50;99.40;;;;;;5066822;28;20233;-75
2020/12/04 10:04:18;;;;;;;54.28;35.03;;;5.50;99.50;;;;;;5044942;28;20178;-76
2020/12/04 10:06:44;;;;;;;28.52;19.10;;;5.50;95.00;;;;;;5057099;28;20538;-75
2020/12/04 10:09:10;;;;;;;22.23;16.80;;;5.50;94.80;;;;;;5060611;28;20183;-76
2020/12/04 10:11:35;;;;;;;14.30;11.80;;;5.50;95.80;;;;;;5057832;28;20201;-75
2020/12/04 10:14:01;;;;;;;12.37;9.27;;;5.60;97.50;;;;;;5053097;28;20183;-76
2020/12/04 10:16:27;;;;;;;53.70;40.13;;;5.60;97.20;;;;;;5046963;28;20214;-76
2020/12/04 10:18:52;;;;;;;33.97;25.70;;;5.60;97.90;;;;;;5061187;28;20270;-76
2020/12/04 10:21:19;;;;;;;40.40;28.40;;;5.60;99.90;;;;;;5051391;28;20212;-76
2020/12/04 10:23:45;;;;;;;31.20;22.67;;;5.60;99.90;;;;;;5055846;28;20315;-75
2020/12/04 10:26:10;;;;;;;33.95;26.05;;;5.60;99.90;;;;;;5060906;28;20186;-75
2020/12/04 10:28:36;;;;;;;33.73;28.57;;;5.70;99.90;;;;;;5052913;28;20189;-75
2020/12/04 10:31:01;;;;;;;32.33;28.07;;;5.70;99.90;;;;;;5053784;28;20260;-76
2020/12/04 10:33:27;;;;;;;29.63;24.67;;;5.70;99.90;;;;;;5055562;28;20186;-75
2020/12/04 10:35:52;;;;;;;22.57;19.27;;;5.70;99.90;;;;;;5046889;28;20188;-75
2020/12/04 10:38:18;;;;;;;36.47;26.70;;;5.70;99.90;;;;;;5046782;28;20187;-76
2020/12/04 10:40:46;;;;;;;23.33;16.17;;;5.70;99.90;;;;;;5046246;28;20186;-75
2020/12/04 10:43:11;;;;;;;22.73;16.52;;;5.60;99.90;;;;;;5042235;28;20195;-76
2020/12/04 10:45:37;;;;;;;23.37;16.70;;;5.60;99.40;;;;;;5052614;28;20240;-76
2020/12/04 10:48:02;;;;;;;21.50;14.77;;;5.60;99.00;;;;;;5065304;28;20723;-76
2020/12/04 10:50:28;;;;;;;22.67;19.03;;;5.50;99.10;;;;;;5075486;28;20252;-76
2020/12/04 10:52:54;;;;;;;13.50;10.27;;;5.50;96.70;;;;;;5047351;28;20195;-75
2020/12/04 10:55:19;;;;;;;13.40;11.03;;;5.40;96.00;;;;;;5063299;28;20205;-76
2020/12/04 10:57:45;;;;;;;14.17;11.23;;;5.40;94.40;;;;;;5058776;28;20448;-76
2020/12/04 11:00:10;;;;;;;19.67;13.13;;;5.40;94.60;;;;;;5052586;28;20190;-76
2020/12/04 11:02:38;;;;;;;14.27;11.63;;;5.50;97.10;;;;;;5055527;28;20332;-76
2020/12/04 11:07:48;;;;;;;14.38;11.80;;;5.60;95.10;;;;;;5052460;28;20220;-76
2020/12/04 11:10:13;;;;;;;16.00;13.10;;;5.60;95.50;;;;;;5060575;28;20649;-76
2020/12/04 11:12:39;;;;;;;14.00;11.50;;;5.60;97.10;;;;;;5057676;28;20193;-76
2020/12/04 11:15:07;;;;;;;13.48;11.27;;;5.70;97.30;;;;;;5047355;28;20187;-76
2020/12/04 11:17:33;;;;;;;15.10;11.63;;;5.70;97.90;;;;;;5053386;28;20578;-76
2020/12/04 11:19:58;;;;;;;22.13;14.57;;;5.80;98.20;;;;;;5063606;28;20225;-76
2020/12/04 11:22:24;;;;;;;17.70;11.87;;;5.90;98.90;;;;;;5045894;28;20502;-76
2020/12/04 11:24:49;;;;;;;15.97;13.13;;;5.90;99.70;;;;;;5056110;28;20187;-76
2020/12/04 11:27:15;;;;;;;13.30;10.30;;;5.90;99.60;;;;;;5064579;28;20648;-76
2020/12/04 11:29:40;;;;;;;14.33;10.80;;;6.00;98.40;;;;;;5071024;28;20185;-76
2020/12/04 11:32:06;;;;;;;11.93;9.37;;;6.00;98.70;;;;;;5058615;28;20554;-76
2020/12/04 11:34:31;;;;;;;19.50;14.27;;;6.10;99.00;;;;;;5053542;28;20201;-76
2020/12/04 11:36:57;;;;;;;21.83;13.57;;;6.10;99.10;;;;;;5054891;28;20190;-76
2020/12/04 11:39:22;;;;;;;21.03;15.73;;;6.10;99.00;;;;;;5055044;28;20210;-76
2020/12/04 11:41:50;;;;;;;17.00;11.40;;;6.20;99.60;;;;;;5052014;28;20230;-76
2020/12/04 11:44:16;;;;;;;17.83;11.57;;;6.10;99.50;;;;;;5053636;28;20178;-76
2020/12/04 11:46:41;;;;;;;15.07;10.00;;;6.10;99.50;;;;;;5050333;28;20195;-76
2020/12/04 11:49:07;;;;;;;8.47;7.60;;;6.10;99.90;;;;;;5067616;28;20194;-76
2020/12/04 11:51:32;;;;;;;8.43;7.33;;;6.10;99.90;;;;;;5064151;28;20185;-76
2020/12/04 11:53:58;;;;;;;10.00;8.80;;;6.10;99.30;;;;;;5069106;28;20190;-76
2020/12/04 11:56:23;;;;;;;11.10;9.60;;;6.10;99.20;;;;;;5057552;28;20261;-76
2020/12/04 11:58:48;;;;;;;15.60;14.03;;;6.10;99.10;;;;;;5056126;28;20182;-76
2020/12/04 12:01:14;;;;;;;13.73;11.93;;;6.10;99.00;;;;;;5057967;28;20209;-75
2020/12/04 12:03:40;;;;;;;11.70;10.60;;;6.10;99.10;;;;;;5051676;28;20236;-76
2020/12/04 12:06:05;;;;;;;10.77;9.80;;;6.10;99.40;;;;;;5054842;28;20445;-76
2020/12/04 12:08:31;;;;;;;12.17;10.97;;;6.10;99.70;;;;;;5062509;28;20641;-76
2020/12/04 12:10:56;;;;;;;10.57;9.50;;;6.10;99.70;;;;;;5052524;28;20193;-76
2020/12/04 12:13:23;;;;;;;13.90;11.10;;;6.10;99.90;;;;;;5054190;28;20217;-76
2020/12/04 12:15:48;;;;;;;13.68;10.25;;;6.10;98.80;;;;;;5044003;28;20187;-76
2020/12/04 12:18:14;;;;;;;14.47;12.90;;;6.00;97.60;;;;;;5054580;28;20311;-76
2020/12/04 12:20:39;;;;;;;12.40;11.03;;;6.10;98.20;;;;;;5056905;28;20279;-76
2020/12/04 12:23:05;;;;;;;13.03;10.70;;;6.10;98.70;;;;;;5064179;28;20755;-76
2020/12/04 12:25:30;;;;;;;11.17;10.00;;;6.10;98.80;;;;;;5056576;28;20270;-75
2020/12/04 12:27:57;;;;;;;20.40;15.97;;;6.20;99.10;;;;;;5049357;28;20182;-75
2020/12/04 12:30:22;;;;;;;12.98;10.88;;;6.20;99.90;;;;;;5053174;28;20191;-76
2020/12/04 12:32:48;;;;;;;13.90;10.27;;;6.20;99.90;;;;;;5048077;28;20186;-75
2020/12/04 12:35:13;;;;;;;12.53;11.00;;;6.20;99.90;;;;;;5054239;28;20237;-76
2020/12/04 12:37:42;;;;;;;11.57;9.80;;;6.30;99.90;;;;;;5054223;28;20182;-76
2020/12/04 12:40:09;;;;;;;12.30;11.00;;;6.30;99.90;;;;;;5064538;28;20179;-79
2020/12/04 12:42:35;;;;;;;22.95;11.48;;;6.30;99.90;;;;;;5044629;28;20218;-80
2020/12/04 12:45:01;;;;;;;25.00;11.60;;;6.30;99.90;;;;;;5062514;28;20189;-76
2020/12/04 12:47:26;;;;;;;11.90;8.93;;;6.30;99.90;;;;;;5061074;28;20628;-81